Time;durP1;ratioP1;P1;durP2;ratioP2;P2;SDS_P1;SDS_P2;PMS_P1;PMS_P2;Temp;Humidity;BMP_temperature;BMP_pressure;BME280_temperature;BME280_humidity;BME280_pressure;Samples;Min_cycle;Max_cycle;Signal;HPM_P1;HPM_P2
2020/12/31 00:01:40;;;;;;;5.65;1.80;;;;;;;26.03;30.08;95691.34;5014214;28;20145;-42
2020/12/31 00:04:06;;;;;;;4.13;2.17;;;;;;;26.05;30.11;95699.94;5019372;28;20749;-38
2020/12/31 00:06:33;;;;;;;3.85;1.90;;;;;;;26.06;30.08;95696.38;5045918;28;22304;-40
2020/12/31 00:08:58;;;;;;;3.88;1.65;;;;;;;26.06;30.13;95696.38;5017881;28;20117;-39
2020/12/31 00:11:24;;;;;;;3.25;1.80;;;;;;;26.07;30.12;95698.06;5020035;28;20404;-38
2020/12/31 00:13:49;;;;;;;3.55;2.15;;;;;;;26.06;30.11;95690.28;5021502;28;20048;-42
2020/12/31 00:16:15;;;;;;;5.90;1.95;;;;;;;26.04;30.18;95682.50;5016187;28;20037;-40
2020/12/31 00:18:40;;;;;;;5.85;1.80;;;;;;;26.05;30.22;95686.81;5025169;28;20048;-40
2020/12/31 00:21:06;;;;;;;3.45;1.52;;;;;;;26.06;30.21;95682.41;5020338;28;20488;-43
2020/12/31 00:23:31;;;;;;;5.13;2.03;;;;;;;26.06;30.15;95679.78;5025975;28;20136;-44
2020/12/31 00:25:57;;;;;;;3.17;1.80;;;;;;;26.05;30.11;95678.94;5019942;28;20057;-37
2020/12/31 00:28:23;;;;;;;3.75;1.90;;;;;;;26.06;30.02;95675.38;5016752;28;20060;-38
2020/12/31 00:30:49;;;;;;;4.55;1.40;;;;;;;26.06;30.15;95675.38;5012274;28;20045;-40
2020/12/31 00:33:14;;;;;;;3.03;1.48;;;;;;;26.04;30.02;95666.75;5019414;28;20056;-38
2020/12/31 00:35:41;;;;;;;4.07;1.90;;;;;;;26.07;29.88;95670.94;5019375;28;20041;-40
2020/12/31 00:38:07;;;;;;;3.67;1.70;;;;;;;26.07;30.14;95670.94;5021339;28;20102;-41
2020/12/31 00:40:33;;;;;;;2.40;1.50;;;;;;;25.89;30.05;95649.50;5017744;28;20045;-39
2020/12/31 00:43:00;;;;;;;2.95;1.60;;;;;;;26.08;30.05;95668.22;5027127;28;20073;-40
2020/12/31 00:45:25;;;;;;;4.35;1.40;;;;;;;26.09;29.90;95674.31;5013330;28;20162;-39
2020/12/31 00:47:51;;;;;;;3.13;1.73;;;;;;;26.08;29.96;95670.84;5021730;28;20091;-43
2020/12/31 00:50:17;;;;;;;4.00;1.40;;;;;;;26.07;30.05;95669.16;5016008;28;20045;-41
2020/12/31 00:52:43;;;;;;;2.05;1.30;;;;;;;26.07;29.96;95665.69;5022614;28;20036;-39
2020/12/31 00:55:09;;;;;;;2.10;1.55;;;;;;;26.07;29.96;95661.28;5019101;28;20408;-38
2020/12/31 00:57:35;;;;;;;3.20;1.48;;;;;;;26.08;30.09;95668.22;5024313;28;20045;-40
2020/12/31 01:00:01;;;;;;;3.45;1.80;;;;;;;26.08;30.03;95668.22;5016142;28;20428;-41
2020/12/31 01:02:26;;;;;;;2.90;1.60;;;;;;;26.07;30.02;95668.31;5022236;28;20140;-39
2020/12/31 01:04:52;;;;;;;2.67;1.50;;;;;;;26.07;30.00;95666.53;5009052;28;20049;-42
2020/12/31 01:07:18;;;;;;;1.88;1.30;;;;;;;26.07;29.89;95666.53;5014887;28;20504;-38
2020/12/31 01:09:43;;;;;;;1.90;1.27;;;;;;;26.03;29.96;95662.47;5026795;28;20041;-38
2020/12/31 01:12:12;;;;;;;1.88;1.15;;;;;;;26.05;29.93;95668.44;5020805;28;20034;-39
2020/12/31 01:14:37;;;;;;;2.55;1.60;;;;;;;26.06;29.92;95664.88;5018080;28;20103;-39
2020/12/31 01:17:03;;;;;;;4.57;1.42;;;;;;;26.08;30.10;95673.47;5012826;28;20988;-35
2020/12/31 01:19:29;;;;;;;1.55;1.10;;;;;;;26.09;29.96;95674.31;5018955;28;20095;-39
2020/12/31 01:21:55;;;;;;;2.20;1.60;;;;;;;26.09;30.01;95669.88;5020749;28;20037;-44
2020/12/31 01:24:21;;;;;;;3.45;1.85;;;;;;;26.08;30.07;95662.97;5026751;28;20796;-42
2020/12/31 01:26:46;;;;;;;2.35;1.23;;;;;;;26.08;29.83;95668.22;5014439;28;20295;-40
2020/12/31 01:29:11;;;;;;;2.53;1.42;;;;;;;26.08;30.19;95662.09;5014435;28;20061;-43
2020/12/31 01:31:37;;;;;;;1.60;1.08;;;;;;;26.09;29.90;95666.44;5037602;28;20041;-43
2020/12/31 01:34:02;;;;;;;1.83;1.10;;;;;;;26.06;30.00;95662.25;5023195;28;20049;-36
2020/12/31 01:36:32;;;;;;;2.22;1.35;;;;;;;26.08;29.88;95662.97;5010853;28;20132;-38
2020/12/31 01:38:59;;;;;;;1.92;1.30;;;;;;;26.08;29.81;95659.50;5020455;28;20087;-41
2020/12/31 01:41:25;;;;;;;3.00;1.45;;;;;;;26.08;29.92;95657.72;5024159;28;20042;-37
2020/12/31 01:44:20;;;;;;;1.10;0.98;;;;;;;26.09;29.96;95664.63;5023089;28;20386;-40
2020/12/31 01:46:47;;;;;;;1.88;1.17;;;;;;;26.09;29.86;95654.13;5013053;28;20107;-43
2020/12/31 01:49:13;;;;;;;2.67;1.58;;;;;;;26.09;30.04;95648.06;5024958;28;20041;-39
2020/12/31 01:51:41;;;;;;;1.98;1.38;;;;;;;26.07;29.79;95645.53;5019932;28;20488;-41
2020/12/31 01:54:06;;;;;;;3.33;1.58;;;;;;;26.05;29.88;95642.16;5039651;28;20463;-38
2020/12/31 01:56:33;;;;;;;4.45;1.40;;;;;;;26.06;29.80;95649.13;5002086;28;20037;-40
2020/12/31 01:58:59;;;;;;;3.10;1.33;;;;;;;26.06;29.98;95641.25;5015276;28;20038;-43
2020/12/31 02:01:24;;;;;;;2.00;1.20;;;;;;;26.08;29.97;95641.09;5017232;28;20049;-37
2020/12/31 02:03:50;;;;;;;2.58;1.23;;;;;;;26.07;29.93;95636.81;5019006;28;20459;-42
2020/12/31 02:06:16;;;;;;;1.20;1.10;;;;;;;26.06;29.89;95638.63;5046121;28;20723;-44
2020/12/31 02:08:45;;;;;;;1.70;1.15;;;;;;;26.05;29.91;95631.66;5027670;28;20044;-40
2020/12/31 02:11:13;;;;;;;2.83;1.30;;;;;;;26.06;30.03;95638.63;5021762;28;20046;-39
2020/12/31 02:13:38;;;;;;;2.00;1.23;;;;;;;26.08;30.01;95633.22;5019122;28;20048;-39
2020/12/31 02:16:04;;;;;;;1.92;1.15;;;;;;;26.07;29.75;95637.66;5018353;28;20041;-39
2020/12/31 02:18:29;;;;;;;1.40;1.10;;;;;;;26.06;29.91;95643.88;5022955;28;20072;-39
2020/12/31 02:20:55;;;;;;;1.50;1.30;;;;;;;26.07;29.82;95642.06;5019645;28;20154;-41
2020/12/31 02:23:21;;;;;;;1.50;1.20;;;;;;;26.07;29.94;95634.19;5017384;28;20051;-41
2020/12/31 02:25:46;;;;;;;2.15;1.08;;;;;;;26.05;29.88;95629.03;5009052;28;20037;-44
2020/12/31 02:28:12;;;;;;;2.33;1.23;;;;;;;26.06;29.78;95633.38;5013014;28;20041;-39
2020/12/31 02:30:38;;;;;;;1.95;1.25;;;;;;;26.08;29.72;95630.59;5013459;28;20630;-41
2020/12/31 02:33:03;;;;;;;2.35;1.10;;;;;;;26.06;29.94;95628.13;5013226;28;20610;-44
2020/12/31 02:35:29;;;;;;;2.13;1.38;;;;;;;26.06;29.93;95628.13;5015049;28;20053;-43
2020/12/31 02:37:55;;;;;;;1.65;1.30;;;;;;;26.05;29.84;95631.66;5015719;28;20084;-40
2020/12/31 02:40:20;;;;;;;3.47;1.50;;;;;;;26.05;29.88;95626.41;5018317;28;20037;-38
2020/12/31 02:42:46;;;;;;;3.15;1.80;;;;;;;26.06;29.79;95625.50;5023996;28;20048;-37
2020/12/31 02:45:12;;;;;;;4.35;1.65;;;;;;;26.06;29.98;95622.88;5021759;28;20041;-41
2020/12/31 02:47:39;;;;;;;2.13;1.35;;;;;;;26.05;29.69;95615.91;5016274;28;20041;-39
2020/12/31 02:50:04;;;;;;;2.25;1.40;;;;;;;26.06;29.77;95614.16;5052414;28;20424;-39
2020/12/31 02:52:30;;;;;;;2.13;1.30;;;;;;;26.03;29.89;95612.59;5015594;28;20037;-40
2020/12/31 02:54:56;;;;;;;1.63;1.40;;;;;;;26.03;29.73;95615.22;5020872;28;20049;-39
2020/12/31 02:57:21;;;;;;;2.17;1.38;;;;;;;26.02;29.78;95621.41;5018432;28;20067;-42
2020/12/31 02:59:47;;;;;;;1.88;1.30;;;;;;;25.99;29.83;95605.88;5012715;28;20515;-40
2020/12/31 03:02:12;;;;;;;2.45;1.30;;;;;;;26.03;29.84;95611.72;5021322;28;20045;-40
2020/12/31 03:04:38;;;;;;;1.83;1.42;;;;;;;26.02;29.74;95610.91;5014176;28;20037;-42
2020/12/31 03:07:03;;;;;;;1.77;1.40;;;;;;;26.01;29.71;95609.22;5022339;28;20049;-39
2020/12/31 03:09:29;;;;;;;2.28;1.40;;;;;;;26.02;29.90;95612.69;5019721;28;20091;-37
2020/12/31 03:11:55;;;;;;;3.28;1.50;;;;;;;26.01;29.87;95614.47;5015712;28;20036;-43
2020/12/31 03:14:21;;;;;;;2.08;1.40;;;;;;;26.00;29.82;95612.78;5020421;28;20042;-42
2020/12/31 03:16:46;;;;;;;1.83;1.38;;;;;;;25.98;29.82;95608.59;5012194;28;20134;-41
2020/12/31 03:19:12;;;;;;;1.58;1.30;;;;;;;25.96;30.02;95606.09;5023175;28;20059;-40
2020/12/31 03:21:38;;;;;;;2.30;1.50;;;;;;;25.98;29.77;95598.13;5016536;28;20045;-42
2020/12/31 03:24:04;;;;;;;1.75;1.40;;;;;;;25.96;29.96;95601.69;5017259;28;20076;-41
2020/12/31 03:26:29;;;;;;;2.00;1.55;;;;;;;25.97;29.88;95602.50;5011752;28;20089;-43
2020/12/31 03:28:54;;;;;;;2.33;1.50;;;;;;;25.96;29.88;95601.69;5021533;28;20099;-41
2020/12/31 03:31:20;;;;;;;1.30;1.20;;;;;;;25.97;29.94;95597.25;5020105;28;20215;-39
2020/12/31 03:33:46;;;;;;;1.92;1.60;;;;;;;25.96;29.83;95598.22;5016513;28;20068;-39
2020/12/31 03:36:12;;;;;;;2.08;1.25;;;;;;;25.96;29.74;95595.59;5013287;28;20056;-38
2020/12/31 03:38:38;;;;;;;1.40;1.30;;;;;;;25.96;29.85;95595.59;5010015;28;20038;-39
2020/12/31 03:41:04;;;;;;;1.55;1.38;;;;;;;25.95;29.85;95599.16;5021288;28;20053;-39
2020/12/31 03:43:29;;;;;;;1.75;1.40;;;;;;;25.92;29.91;95594.13;5020831;28;20044;-42
2020/12/31 03:45:55;;;;;;;5.90;1.25;;;;;;;25.93;29.86;95590.59;5018725;28;20091;-40
2020/12/31 03:48:21;;;;;;;3.17;1.67;;;;;;;25.93;29.78;95590.59;5021620;28;20550;-40
2020/12/31 03:50:46;;;;;;;2.03;1.45;;;;;;;25.93;29.88;95583.53;5022827;28;20040;-37
2020/12/31 03:53:12;;;;;;;1.40;1.13;;;;;;;25.92;30.04;95574.00;5023424;28;20044;-42
2020/12/31 03:55:38;;;;;;;2.00;1.13;;;;;;;25.93;29.75;95582.72;5017512;28;20041;-35
2020/12/31 03:58:03;;;;;;;2.38;1.40;;;;;;;25.94;29.93;95571.25;5020494;28;20103;-43
2020/12/31 04:00:29;;;;;;;2.83;1.25;;;;;;;25.94;29.79;95558.94;5015579;28;20050;-39
2020/12/31 04:02:54;;;;;;;2.60;1.48;;;;;;;25.95;29.71;95554.56;5024021;28;20745;-42
2020/12/31 04:05:20;;;;;;;1.30;1.20;;;;;;;25.95;29.83;95557.19;5012775;28;20520;-39
2020/12/31 04:07:46;;;;;;;2.47;1.20;;;;;;;25.95;29.80;95551.94;5016581;28;20045;-41
2020/12/31 04:10:12;;;;;;;1.48;1.17;;;;;;;25.93;29.90;95553.84;5026487;28;20045;-41
2020/12/31 04:12:38;;;;;;;1.15;1.00;;;;;;;25.95;29.66;95549.31;5014484;28;20050;-41
2020/12/31 04:15:04;;;;;;;2.83;1.10;;;;;;;25.94;29.72;95545.00;5026144;28;20033;-36
2020/12/31 04:17:30;;;;;;;2.80;1.40;;;;;;;25.93;29.58;95532.84;5025522;28;20081;-39
2020/12/31 04:19:56;;;;;;;1.58;1.15;;;;;;;25.95;29.64;95546.69;5016152;28;20475;-41
2020/12/31 04:22:21;;;;;;;2.20;1.30;;;;;;;25.94;29.65;95539.75;5022825;28;20656;-38
2020/12/31 04:24:47;;;;;;;1.05;0.93;;;;;;;25.94;29.65;95543.19;5017966;28;20050;-43
2020/12/31 04:27:12;;;;;;;2.47;1.55;;;;;;;25.90;30.02;95539.13;5019836;28;20041;-43
2020/12/31 04:29:38;;;;;;;2.05;1.30;;;;;;;25.89;29.66;95531.41;5022962;28;20489;-41
2020/12/31 04:32:04;;;;;;;1.45;1.17;;;;;;;25.91;29.87;95534.72;5020475;28;20274;-41
2020/12/31 04:34:29;;;;;;;0.80;0.80;;;;;;;25.89;29.73;95526.16;5019759;28;20033;-41
2020/12/31 04:36:55;;;;;;;1.58;1.15;;;;;;;25.88;29.63;95520.03;5027756;28;20426;-39
2020/12/31 04:39:21;;;;;;;1.75;1.35;;;;;;;25.89;29.55;95520.91;5021388;28;20052;-39
2020/12/31 04:41:46;;;;;;;1.23;1.13;;;;;;;25.88;29.50;95516.56;5018583;28;20582;-41
2020/12/31 04:44:13;;;;;;;3.13;1.40;;;;;;;25.89;29.56;95515.66;5026032;28;20043;-38
2020/12/31 04:46:39;;;;;;;2.00;1.17;;;;;;;25.89;29.59;95510.41;5017748;28;20477;-42
2020/12/31 04:49:11;;;;;;;2.13;0.95;;;;;;;25.88;29.66;95513.94;5018180;28;20087;-41
2020/12/31 04:51:38;;;;;;;1.25;0.90;;;;;;;25.86;29.73;95515.88;5021898;28;20045;-43
2020/12/31 04:54:07;;;;;;;1.42;1.10;;;;;;;25.87;29.82;95515.75;5020853;28;20113;-43
2020/12/31 04:56:37;;;;;;;1.35;1.20;;;;;;;25.86;29.72;95511.47;5014875;28;20045;-44
2020/12/31 04:59:06;;;;;;;1.52;1.13;;;;;;;25.85;29.81;95508.94;5022357;28;20609;-43
2020/12/31 05:01:31;;;;;;;1.67;1.20;;;;;;;25.85;29.83;95508.94;5019760;28;20033;-40
2020/12/31 05:03:58;;;;;;;1.77;1.02;;;;;;;25.80;29.59;95507.50;5020740;28;20116;-44
2020/12/31 05:06:23;;;;;;;1.65;0.98;;;;;;;25.81;29.81;95503.91;5019326;28;20045;-38
2020/12/31 05:08:50;;;;;;;1.17;0.95;;;;;;;25.83;29.80;95506.44;5019664;28;20625;-36
2020/12/31 05:11:15;;;;;;;1.63;1.00;;;;;;;25.84;29.83;95510.72;5024398;28;20083;-42
2020/12/31 05:13:50;;;;;;;2.47;1.17;;;;;;;25.85;29.75;95503.69;5016578;28;20041;-39
2020/12/31 05:16:36;;;;;;;1.17;1.00;;;;;;;25.85;29.58;95508.94;5015958;28;20080;-44
2020/12/31 05:19:02;;;;;;;1.30;1.20;;;;;;;25.85;29.52;95503.69;5022957;28;20108;-39
2020/12/31 05:21:27;;;;;;;1.38;1.10;;;;;;;25.83;29.58;95499.38;5024658;28;20513;-40
2020/12/31 05:23:52;;;;;;;1.80;1.42;;;;;;;25.83;29.72;95504.63;5028032;28;20037;-43
2020/12/31 05:26:31;;;;;;;1.52;1.30;;;;;;;25.81;29.75;95498.66;5014520;28;20568;-41
2020/12/31 05:28:57;;;;;;;2.15;1.30;;;;;;;25.82;29.66;95499.50;5020460;28;20126;-42
2020/12/31 05:31:23;;;;;;;2.00;1.23;;;;;;;25.81;29.72;95492.56;5019685;28;20124;-39
2020/12/31 05:33:49;;;;;;;1.40;1.15;;;;;;;25.81;29.66;95492.56;5022382;28;20041;-38
2020/12/31 05:36:25;;;;;;;1.75;1.40;;;;;;;25.82;29.66;95499.50;5019371;28;20040;-41
2020/12/31 05:39:02;;;;;;;1.60;0.95;;;;;;;25.81;29.64;95490.78;5015261;28;20484;-39
2020/12/31 05:41:45;;;;;;;2.08;1.25;;;;;;;25.80;29.71;95486.50;5023133;28;20034;-37
2020/12/31 05:44:11;;;;;;;2.17;1.20;;;;;;;25.78;29.75;95493.63;5016732;28;20125;-38
2020/12/31 05:46:37;;;;;;;1.38;0.95;;;;;;;25.79;29.77;95484.00;5016852;28;20563;-41
2020/12/31 05:49:10;;;;;;;1.10;1.00;;;;;;;25.78;29.77;95483.13;5022671;28;20033;-40
2020/12/31 05:51:36;;;;;;;1.45;1.10;;;;;;;25.72;29.77;95473.09;5018942;28;20045;-38
2020/12/31 05:54:06;;;;;;;1.88;1.23;;;;;;;25.76;29.66;95482.44;5025405;28;20041;-40
2020/12/31 05:56:33;;;;;;;2.38;1.10;;;;;;;25.75;29.78;95488.63;5021492;28;20098;-42
2020/12/31 05:59:05;;;;;;;1.23;1.13;;;;;;;25.70;29.66;95469.75;5024648;28;20029;-42
2020/12/31 06:01:31;;;;;;;1.77;1.10;;;;;;;25.75;29.63;95483.38;5015490;28;20055;-41
2020/12/31 06:03:56;;;;;;;1.30;1.05;;;;;;;25.76;29.75;95479.81;5014157;28;20045;-36
2020/12/31 06:06:24;;;;;;;1.58;1.10;;;;;;;25.75;29.58;95472.91;4997793;28;20619;-40
2020/12/31 06:09:03;;;;;;;0.88;0.80;;;;;;;25.76;29.75;95479.81;5017493;28;20037;-40
2020/12/31 06:11:33;;;;;;;3.47;1.25;;;;;;;25.74;29.76;95476.44;5012997;28;20045;-43
2020/12/31 06:13:59;;;;;;;1.23;1.10;;;;;;;25.75;29.77;95472.91;5014595;28;20045;-40
2020/12/31 06:16:28;;;;;;;1.90;1.10;;;;;;;25.76;29.73;95468.47;4992045;28;20739;-42
2020/12/31 06:19:00;;;;;;;2.08;1.20;;;;;;;25.74;29.72;95460.69;5014842;28;20029;-43
2020/12/31 06:21:41;;;;;;;1.10;0.90;;;;;;;25.73;29.87;95459.03;5018061;28;20048;-39
2020/12/31 06:24:13;;;;;;;1.40;1.08;;;;;;;25.74;29.80;95465.94;5037521;28;20037;-39
2020/12/31 06:26:40;;;;;;;1.10;1.00;;;;;;;25.73;29.54;95466.91;5014274;28;20713;-41
2020/12/31 06:29:06;;;;;;;1.77;1.20;;;;;;;25.74;29.65;95465.94;5023495;28;20040;-37
2020/12/31 06:31:32;;;;;;;1.38;1.20;;;;;;;25.74;29.83;95465.94;5013430;28;20037;-40
2020/12/31 06:34:03;;;;;;;1.20;1.10;;;;;;;25.73;29.75;95464.28;5024837;28;20044;-42
2020/12/31 06:36:35;;;;;;;1.05;0.82;;;;;;;25.73;29.80;95464.28;5012040;28;20138;-43
2020/12/31 06:39:20;;;;;;;1.00;0.90;;;;;;;25.72;29.70;95467.88;5009399;28;20037;-40
2020/12/31 06:41:45;;;;;;;1.77;1.10;;;;;;;25.71;29.84;95466.19;5018345;28;20056;-38
2020/12/31 06:44:12;;;;;;;3.83;2.05;;;;;;;25.71;29.01;95468.81;5029810;28;20045;-36
2020/12/31 06:46:48;;;;;;;2.80;1.40;;;;;;;25.69;29.36;95468.09;5018734;28;20045;-44
2020/12/31 06:49:13;;;;;;;2.83;0.95;;;;;;;25.68;29.56;95466.41;5018196;28;20546;-38
2020/12/31 06:51:39;;;;;;;1.33;1.00;;;;;;;25.67;29.63;95459.50;5019458;28;20037;-39
2020/12/31 06:54:05;;;;;;;2.17;1.30;;;;;;;25.64;29.67;95460.56;5018757;28;20102;-40
2020/12/31 06:56:43;;;;;;;1.55;1.30;;;;;;;25.65;29.67;95456.13;5020024;28;20429;-41
2020/12/31 06:59:24;;;;;;;1.20;0.90;;;;;;;25.66;29.83;95463.91;5017063;28;20575;-38
2020/12/31 07:01:50;;;;;;;1.33;1.10;;;;;;;25.65;29.70;95456.13;5015191;28;20053;-40
2020/12/31 07:04:28;;;;;;;2.10;1.08;;;;;;;25.62;29.71;95456.38;5018755;28;20038;-42
2020/12/31 07:06:54;;;;;;;1.63;1.10;;;;;;;25.64;29.81;95454.47;5017859;28;20037;-41
2020/12/31 07:09:35;;;;;;;1.67;1.08;;;;;;;25.64;29.83;95452.69;5038716;28;20090;-40
2020/12/31 07:12:07;;;;;;;5.35;1.20;;;;;;;25.66;29.70;95447.34;5020932;28;20136;-39
2020/12/31 07:14:35;;;;;;;0.88;0.85;;;;;;;25.66;29.64;95449.97;5010790;28;20072;-44
2020/12/31 07:17:09;;;;;;;2.03;1.33;;;;;;;25.67;29.68;95454.25;5028151;28;20037;-36
2020/12/31 07:19:42;;;;;;;1.10;1.00;;;;;;;25.62;29.67;95445.88;5040581;28;20049;-42
2020/12/31 07:22:10;;;;;;;1.50;0.80;;;;;;;25.63;29.65;95452.81;5041599;28;20033;-41
2020/12/31 07:24:45;;;;;;;1.42;1.10;;;;;;;25.62;29.82;95453.75;5041576;28;20786;-39
2020/12/31 07:27:22;;;;;;;3.20;1.20;;;;;;;25.62;29.96;95453.75;5061231;28;20422;-42
2020/12/31 07:30:06;;;;;;;1.15;1.05;;;;;;;25.61;29.89;95449.44;5035254;28;20024;-39
2020/12/31 07:32:51;;;;;;;1.30;0.80;;;;;;;25.62;29.77;95440.66;5032539;28;20090;-42
2020/12/31 07:35:26;;;;;;;5.10;1.67;;;;;;;25.62;29.62;95454.56;5039131;28;20759;-39
2020/12/31 07:37:53;;;;;;;5.75;1.27;;;;;;;25.65;29.50;95450.88;5030128;28;20052;-42
2020/12/31 07:40:43;;;;;;;2.03;1.10;;;;;;;25.65;29.63;95443.03;5037660;28;21989;-41
2020/12/31 07:43:11;;;;;;;2.55;1.40;;;;;;;25.63;29.54;95437.06;5031112;28;20048;-41
2020/12/31 07:45:37;;;;;;;2.42;1.70;;;;;;;25.63;29.42;95437.06;5038826;28;20049;-37
2020/12/31 07:48:02;;;;;;;3.60;2.10;;;;;;;25.63;28.77;95442.31;5027433;28;20045;-38
2020/12/31 07:50:28;;;;;;;4.72;1.80;;;;;;;25.60;28.87;95439.91;5031731;28;20107;-40
2020/12/31 07:52:54;;;;;;;7.88;2.00;;;;;;;25.59;28.72;95430.38;5023645;28;20049;-44
2020/12/31 07:55:20;;;;;;;1.98;1.35;;;;;;;25.61;28.88;95431.94;5011925;28;20038;-43
2020/12/31 07:57:45;;;;;;;2.65;1.55;;;;;;;25.59;29.01;95440.84;5016642;28;20049;-40
2020/12/31 08:00:23;;;;;;;3.70;1.20;;;;;;;25.57;29.08;95435.72;5017891;28;20094;-41
2020/12/31 08:02:51;;;;;;;8.35;1.38;;;;;;;25.55;29.22;95435.81;5019806;28;20923;-43
2020/12/31 08:05:18;;;;;;;3.30;1.50;;;;;;;25.56;29.43;95434.88;5014888;28;20047;-40
2020/12/31 08:07:43;;;;;;;4.70;1.20;;;;;;;25.56;29.47;95432.25;5020822;28;20099;-40
2020/12/31 08:10:10;;;;;;;2.33;1.30;;;;;;;25.56;29.25;95434.88;5019560;28;20483;-39
2020/12/31 08:12:38;;;;;;;1.88;1.10;;;;;;;25.57;29.43;95433.09;5011710;28;20739;-40
2020/12/31 08:15:04;;;;;;;2.58;1.40;;;;;;;25.56;29.35;95427.00;5015488;28;20120;-42
2020/12/31 08:17:29;;;;;;;1.42;1.10;;;;;;;25.56;29.54;95432.25;5010048;28;20128;-43
2020/12/31 08:19:55;;;;;;;1.48;1.20;;;;;;;25.52;29.49;95425.53;5014380;28;20052;-42
2020/12/31 08:22:41;;;;;;;1.50;1.08;;;;;;;25.56;29.44;95432.25;5009081;28;20053;-39
2020/12/31 08:25:10;;;;;;;3.70;1.50;;;;;;;25.55;29.70;95421.88;5010198;28;20064;-42
2020/12/31 08:27:39;;;;;;;2.25;1.40;;;;;;;25.57;29.58;95427.84;5011183;28;22128;-43
2020/12/31 08:30:09;;;;;;;3.45;1.10;;;;;;;25.57;29.68;95422.59;5022088;28;20107;-37
2020/12/31 08:32:50;;;;;;;1.65;1.27;;;;;;;25.58;28.95;95424.28;5013801;28;20035;-43
2020/12/31 08:35:30;;;;;;;1.60;1.27;;;;;;;25.58;29.51;95429.53;5016218;28;20047;-37
2020/12/31 08:38:01;;;;;;;2.97;1.33;;;;;;;25.60;29.39;95432.88;5014444;28;20031;-42
2020/12/31 08:40:27;;;;;;;1.35;1.25;;;;;;;25.60;29.54;95427.63;5018398;28;20530;-38
2020/12/31 08:42:53;;;;;;;1.83;1.10;;;;;;;25.56;29.56;95420.94;5015565;28;20041;-42
2020/12/31 08:45:32;;;;;;;1.90;1.20;;;;;;;25.61;29.62;95428.44;5028721;28;20535;-40
2020/12/31 08:48:17;;;;;;;1.38;1.10;;;;;;;25.61;29.47;95428.44;5037786;28;20284;-41
2020/12/31 08:50:57;;;;;;;1.20;1.00;;;;;;;25.60;29.50;95425.00;5037319;28;20253;-38
2020/12/31 08:53:23;;;;;;;1.70;0.95;;;;;;;25.61;29.65;95436.31;5039761;28;20052;-40
2020/12/31 08:55:48;;;;;;;1.08;0.80;;;;;;;25.61;29.74;95428.44;5031455;28;20091;-42
2020/12/31 08:58:15;;;;;;;2.75;1.20;;;;;;;25.60;29.77;95434.66;5043068;28;20130;-42
2020/12/31 09:00:40;;;;;;;1.60;0.80;;;;;;;25.62;29.73;95438.03;5032830;28;20033;-41
2020/12/31 09:03:07;;;;;;;1.20;0.90;;;;;;;25.62;29.79;95435.41;5035222;28;20124;-38
2020/12/31 09:05:33;;;;;;;2.60;1.33;;;;;;;25.59;29.47;95436.44;5032770;28;20569;-36
2020/12/31 09:08:05;;;;;;;1.58;1.00;;;;;;;25.61;29.27;95434.56;5041129;28;20036;-46
2020/12/31 09:10:32;;;;;;;1.40;1.20;;;;;;;25.62;29.38;95430.16;5034155;28;20037;-40
2020/12/31 09:12:58;;;;;;;13.05;1.42;;;;;;;25.60;29.39;95432.03;5033359;28;20128;-36
2020/12/31 09:15:24;;;;;;;2.30;1.50;;;;;;;25.60;29.46;95429.41;5029495;28;20112;-42
2020/12/31 09:17:50;;;;;;;1.55;1.10;;;;;;;25.57;29.27;95433.09;5020227;28;20068;-41
2020/12/31 09:20:36;;;;;;;1.65;1.27;;;;;;;25.59;29.55;95440.84;5012075;28;20108;-38
2020/12/31 09:23:09;;;;;;;1.85;1.25;;;;;;;25.58;29.47;95434.75;5014519;28;20524;-40
2020/12/31 09:25:34;;;;;;;3.10;1.50;;;;;;;25.56;29.54;95432.25;5012753;28;20857;-39
2020/12/31 09:28:00;;;;;;;4.75;1.45;;;;;;;25.57;28.35;95428.69;5011960;28;20048;-42
2020/12/31 09:30:28;;;;;;;1.52;1.27;;;;;;;25.60;29.31;95437.28;5014742;28;20084;-37
2020/12/31 09:32:53;;;;;;;5.60;1.20;;;;;;;25.58;29.34;95437.38;5016795;28;20127;-40
2020/12/31 09:35:19;;;;;;;4.13;1.52;;;;;;;25.60;29.07;95432.03;5019589;28;20099;-40
2020/12/31 09:37:48;;;;;;;1.40;1.00;;;;;;;25.62;28.92;95430.16;5019957;28;20045;-44
2020/12/31 09:40:14;;;;;;;1.45;0.95;;;;;;;25.63;29.06;95437.06;5017458;28;20115;-42
2020/12/31 09:42:40;;;;;;;9.35;1.50;;;;;;;25.63;28.88;95427.38;5018754;28;20407;-40
2020/12/31 09:45:05;;;;;;;2.92;1.35;;;;;;;25.63;29.10;95422.13;5017943;28;20112;-41
2020/12/31 09:47:31;;;;;;;3.80;1.40;;;;;;;25.63;29.03;95423.94;5021380;28;20092;-41
2020/12/31 09:49:57;;;;;;;1.90;1.20;;;;;;;25.63;28.83;95413.44;5016341;28;20045;-37
2020/12/31 09:52:22;;;;;;;2.00;1.25;;;;;;;25.63;29.15;95414.28;5014101;28;20908;-40
2020/12/31 09:54:48;;;;;;;2.00;1.10;;;;;;;25.64;29.03;95415.13;5012221;28;20876;-37
2020/12/31 09:57:13;;;;;;;9.70;1.58;;;;;;;25.62;28.67;95412.59;5012827;28;20041;-41
2020/12/31 09:59:39;;;;;;;8.35;1.50;;;;;;;25.63;29.31;95409.03;5017216;28;20094;-38
2020/12/31 10:02:05;;;;;;;3.67;1.33;;;;;;;25.63;29.28;95403.78;5032351;28;20037;-41
2020/12/31 10:04:30;;;;;;;2.13;1.10;;;;;;;25.63;29.35;95402.97;5038542;28;20094;-44
2020/12/31 10:06:56;;;;;;;3.83;1.08;;;;;;;25.64;29.26;95394.13;5012780;28;20525;-42
2020/12/31 10:09:23;;;;;;;3.67;1.48;;;;;;;25.63;29.33;95395.09;5039269;28;20110;-40
2020/12/31 10:11:53;;;;;;;5.07;1.90;;;;;;;25.65;29.49;95388.78;5036884;28;20037;-42
2020/12/31 10:14:19;;;;;;;4.45;1.05;;;;;;;25.65;29.53;95387.94;5042176;28;20474;-39
2020/12/31 10:16:44;;;;;;;10.65;1.23;;;;;;;25.68;29.74;95395.56;5022632;28;20111;-41
2020/12/31 10:19:10;;;;;;;3.60;1.40;;;;;;;25.70;29.49;95402.38;5015999;28;20076;-41
2020/12/31 10:21:35;;;;;;;3.30;1.25;;;;;;;25.65;29.55;95398.41;5021838;28;20033;-42
2020/12/31 10:24:01;;;;;;;5.25;1.65;;;;;;;25.39;30.42;95396.75;5015213;28;20059;-46
2020/12/31 10:26:26;;;;;;;4.35;1.42;;;;;;;25.08;30.88;95387.66;5022177;28;20051;-44
2020/12/31 10:28:52;;;;;;;6.60;1.13;;;;;;;24.93;31.55;95393.06;5022144;28;20033;-43
2020/12/31 10:31:18;;;;;;;5.65;1.40;;;;;;;24.86;31.65;95386.63;5017312;28;23096;-40
2020/12/31 10:33:44;;;;;;;1.98;1.10;;;;;;;24.90;31.57;95386.28;5014971;28;20041;-43
2020/12/31 10:36:09;;;;;;;2.85;1.00;;;;;;;25.04;31.01;95384.44;5017477;28;20515;-44
2020/12/31 10:38:38;;;;;;;1.63;0.90;;;;;;;25.15;30.73;95381.88;5016920;28;20136;-47
2020/12/31 10:41:05;;;;;;;1.13;0.80;;;;;;;25.36;31.07;95380.41;5015086;28;20053;-46
2020/12/31 10:43:31;;;;;;;2.05;1.00;;;;;;;25.53;30.36;95384.41;5019752;28;20092;-43
2020/12/31 10:45:57;;;;;;;2.00;1.08;;;;;;;25.69;30.31;95379.72;5015890;28;20045;-47
2020/12/31 10:48:23;;;;;;;1.38;0.80;;;;;;;25.82;30.19;95369.13;5017337;28;20165;-47
2020/12/31 10:50:48;;;;;;;1.50;1.00;;;;;;;25.95;30.07;95362.94;5016124;28;20068;-46
2020/12/31 10:53:16;;;;;;;1.30;1.00;;;;;;;26.08;29.88;95358.44;5017817;28;20059;-44
2020/12/31 10:55:41;;;;;;;2.97;0.90;;;;;;;26.19;29.67;95348.88;5034462;28;20045;-46
2020/12/31 10:58:07;;;;;;;1.95;0.98;;;;;;;26.25;29.46;95348.41;5024395;28;20855;-40
2020/12/31 11:00:33;;;;;;;1.98;1.05;;;;;;;26.31;29.48;95347.97;5016237;28;20665;-45
2020/12/31 11:02:59;;;;;;;1.17;0.77;;;;;;;26.36;29.29;95339.72;5016738;28;20588;-43
2020/12/31 11:05:24;;;;;;;2.05;1.10;;;;;;;26.39;29.33;95336.03;5013042;28;20144;-41
2020/12/31 11:07:50;;;;;;;1.65;0.93;;;;;;;26.43;29.32;95335.66;5016074;28;20171;-43
2020/12/31 11:10:16;;;;;;;1.52;0.90;;;;;;;26.48;29.21;95333.47;5012914;28;20472;-46
2020/12/31 11:12:41;;;;;;;0.85;0.70;;;;;;;26.51;29.19;95326.34;5016805;28;20026;-47
2020/12/31 11:15:07;;;;;;;1.67;0.95;;;;;;;26.54;29.12;95326.09;5017586;28;20119;-44
2020/12/31 11:17:32;;;;;;;1.00;0.70;;;;;;;26.57;29.05;95324.06;5014572;28;20049;-47
2020/12/31 11:19:58;;;;;;;0.98;0.70;;;;;;;26.63;28.99;95324.50;5018627;28;20045;-45
2020/12/31 11:22:23;;;;;;;4.05;1.08;;;;;;;26.64;29.00;95320.94;5019644;28;20037;-45
2020/12/31 11:24:49;;;;;;;1.75;0.98;;;;;;;26.63;28.99;95316.63;5023426;28;20049;-43
2020/12/31 11:27:16;;;;;;;4.78;0.90;;;;;;;26.61;29.04;95314.97;5022426;28;20088;-41
2020/12/31 11:29:44;;;;;;;2.97;0.98;;;;;;;26.66;28.96;95311.16;5022841;28;20485;-46
2020/12/31 11:32:10;;;;;;;1.42;0.98;;;;;;;26.71;28.78;95308.97;5034030;28;20144;-47
2020/12/31 11:34:35;;;;;;;1.67;0.93;;;;;;;26.77;28.74;95302.41;5027253;28;20052;-46
2020/12/31 11:37:03;;;;;;;1.25;0.85;;;;;;;26.81;28.57;95304.63;5013585;28;20499;-47